Calgary, Alberta

11:49 PM MDT on June 27, 2017 (GMT -0600)
Crescent Heights | | Change Station

Elev 3543 ft 51.06 °N, 114.07 °W | Updated 47 seconds ago

Clear
Clear
56.9 °F
Feels Like 56.9 °F
N
5.0
Wind Variable Wind from ESE

Today
High -- | Low -- °F
--% Chance of Precip.
Yesterday
High -- | Low -- °F
Precip. -- in
Pressure 29.79 in
Visibility 15.0 miles
Clouds Few 2400 ft
Few 7000 ft
Dew Point 46 °F
Humidity 69%
Rainfall 0.00 in
Snow Depth Not available.
5:23 AM 9:54 PM
Waxing Crescent, 22% visible
METAR CYYC 280500Z 34004KT 15SM VCSH FEW024CB FEW070 14/08 A2978 RMK CB1AC1 SH NE-E / OCNL LTGCC+CG NE-E SLP088 DENSITY ALT 4500FT
Pressure 29.79 in
Visibility 15.0 miles
Clouds Few 2400 ft
Few 7000 ft
Dew Point 46 °F
Humidity 69%
Rainfall 0.00 in
Snow Depth Not available.
5:23 AM 9:54 PM
Waxing Crescent, 22% visible
METAR CYYC 280500Z 34004KT 15SM VCSH FEW024CB FEW070 14/08 A2978 RMK CB1AC1 SH NE-E / OCNL LTGCC+CG NE-E SLP088 DENSITY ALT 4500FT

Get Severe Weather Alerts

Thanks for signing up!

Be on the lookout for a verification email in your inbox.

You'll start receiving the daily forecast at 6 AM.

×

10-Day Weather Forecast

Almanac

Astronomy

Jun. 27, 2017 Rise Set
Actual Time
Civil Twilight
Nautical Twilight
Astronomical Twilight
Moon
Length of Visible Light
Length of Day
Tomorrow will be .
, % of the Moon is Illuminated

Today's Extremes

Country Highs Country Lows

Community

WunderPhotos

Category 6

Welcome to Category 6. This is the collective home for Weather Underground's featured writeups by Dr. Jeff Masters (right), Bob Henson (left), Chris Burt, and other regular contributors.

Nearby

Air Quality

  Air Quality AQ Index Pollutant
Not available.

Snow Depth

Station Depth Elevation

Earthquake Activity

City Distance Mag. Time & Date
Minimum magnitude displayed is 2.5.

Coastal Water Temperatures

Place Temperature

Stations

Nearby Weather Stations

Station Location Temp. Windchill Dew Point Humidity Wind Precip. Elev Updated Type
                   

Watches & Warnings

There are currently no watches in effect.